createdAt,value
2022-12-22T00:01:33.995Z,100328.94
2022-12-22T00:06:57.463Z,100318.66
2022-12-22T00:12:21.065Z,100315.25
2022-12-22T00:17:48.230Z,100307.50
2022-12-22T00:23:12.858Z,100316.03
2022-12-22T00:28:36.643Z,100315.16
2022-12-22T00:34:01.790Z,100312.63
2022-12-22T00:39:31.528Z,100304.03
2022-12-22T00:44:55.798Z,100298.91
2022-12-22T00:50:21.507Z,100293.75
2022-12-22T00:55:50.607Z,100298.03
2022-12-22T01:01:14.342Z,100295.47
2022-12-22T01:06:39.300Z,100296.38
2022-12-22T01:12:02.792Z,100286.91
2022-12-22T01:17:28.582Z,100275.75
2022-12-22T01:22:53.722Z,100279.22
2022-12-22T01:28:17.873Z,100274.03
2022-12-22T01:33:41.510Z,100273.22
2022-12-22T01:39:06.740Z,100272.41
2022-12-22T01:44:35.645Z,100271.56
2022-12-22T01:50:03.025Z,100272.41
2022-12-22T01:55:34.285Z,100277.56
2022-12-22T02:00:58.246Z,100289.56
2022-12-22T02:06:41.461Z,100287.91
2022-12-22T02:12:21.483Z,100286.19
2022-12-22T02:17:52.158Z,100287.88
2022-12-22T02:23:29.179Z,100277.63
2022-12-22T02:28:55.494Z,100265.56
2022-12-22T02:34:19.063Z,100276.72
2022-12-22T02:39:54.977Z,100283.59
2022-12-22T02:45:31.903Z,100277.59
2022-12-22T02:51:03.906Z,100285.31
2022-12-22T02:56:30.111Z,100283.56
2022-12-22T03:01:55.258Z,100282.72
2022-12-22T03:07:18.672Z,100281.84
2022-12-22T03:12:42.333Z,100286.16
2022-12-22T03:18:07.409Z,100274.19
2022-12-22T03:23:31.199Z,100279.34
2022-12-22T03:28:38.804Z,100282.81
2022-12-22T03:33:46.512Z,100280.22
2022-12-22T03:38:52.777Z,100267.34
2022-12-22T03:44:16.728Z,100263.09
2022-12-22T03:49:26.604Z,100256.25
2022-12-22T03:54:34.031Z,100242.53
2022-12-22T03:59:40.535Z,100238.25
2022-12-22T04:04:48.455Z,100236.47
2022-12-22T04:10:11.405Z,100241.69
2022-12-22T04:15:19.242Z,100242.50
2022-12-22T04:20:30.632Z,100238.19
2022-12-22T04:25:37.056Z,100232.22
2022-12-22T04:30:43.620Z,100218.47
2022-12-22T04:35:51.645Z,100210.75
2022-12-22T04:40:58.099Z,100209.94
2022-12-22T04:46:05.470Z,100203.13
2022-12-22T04:51:14.085Z,100203.94
2022-12-22T04:56:20.475Z,100208.25
2022-12-22T05:01:27.225Z,100212.50
2022-12-22T05:06:35.216Z,100201.34
2022-12-22T05:11:41.894Z,100203.06
2022-12-22T05:16:48.428Z,100197.06
2022-12-22T05:21:56.338Z,100202.25
2022-12-22T05:27:03.139Z,100202.28
2022-12-22T05:32:09.781Z,100204.84
2022-12-22T05:37:17.847Z,100197.13
2022-12-22T05:42:41.470Z,100198.84
2022-12-22T05:47:50.838Z,100206.53
2022-12-22T05:52:58.813Z,100215.16
2022-12-22T05:58:05.187Z,100204.00
2022-12-22T06:03:11.954Z,100223.72
2022-12-22T06:08:19.989Z,100222.84
2022-12-22T06:13:27.954Z,100225.38
2022-12-22T06:18:34.487Z,100221.09
2022-12-22T06:23:42.403Z,100224.50
2022-12-22T06:28:49.643Z,100230.50
2022-12-22T06:33:56.445Z,100227.06
2022-12-22T06:39:04.608Z,100230.50
2022-12-22T06:44:11.217Z,100235.66
2022-12-22T06:49:18.079Z,100227.06
2022-12-22T06:54:26.665Z,100218.53
2022-12-22T06:59:33.535Z,100225.41
2022-12-22T07:04:42.631Z,100229.72
2022-12-22T07:09:50.438Z,100220.28
2022-12-22T07:14:57.104Z,100215.16
2022-12-22T07:20:04.228Z,100220.34
2022-12-22T07:25:12.723Z,100207.47
2022-12-22T07:30:22.539Z,100208.34
2022-12-22T07:35:29.258Z,100205.75
2022-12-22T07:40:41.743Z,100206.63
2022-12-22T07:45:49.269Z,100193.72
2022-12-22T07:50:57.107Z,100194.59
2022-12-22T07:56:09.778Z,100190.31
2022-12-22T08:01:18.438Z,100183.47
2022-12-22T08:06:25.625Z,100180.03
2022-12-22T08:11:33.804Z,100173.16
2022-12-22T08:16:40.548Z,100174.03
2022-12-22T08:21:52.474Z,100168.88
2022-12-22T08:27:05.176Z,100176.59
2022-12-22T08:32:18.063Z,100175.75
2022-12-22T08:37:27.904Z,100173.19
2022-12-22T08:42:36.626Z,100175.78
2022-12-22T08:47:43.171Z,100180.94
2022-12-22T08:52:49.894Z,100182.66
2022-12-22T08:57:59.515Z,100168.94
2022-12-22T09:03:06.425Z,100169.81
2022-12-22T09:08:14.983Z,100157.75
2022-12-22T09:13:23.363Z,100151.75
2022-12-22T09:18:29.943Z,100133.69
2022-12-22T09:23:36.452Z,100137.13
2022-12-22T09:28:49.863Z,100125.97
2022-12-22T09:33:57.611Z,100113.91
2022-12-22T09:39:08.688Z,100113.03
2022-12-22T09:44:27.237Z,100109.59
2022-12-22T09:49:34.124Z,100102.72
2022-12-22T09:54:40.652Z,100087.28
2022-12-22T09:59:49.327Z,100079.53
2022-12-22T10:05:17.097Z,100077.00
2022-12-22T10:10:28.641Z,100074.41
2022-12-22T10:15:43.328Z,100065.81
2022-12-22T10:21:10.055Z,100051.22
2022-12-22T10:26:30.161Z,100056.38
2022-12-22T10:31:56.538Z,100033.19
2022-12-22T10:37:05.090Z,100028.06
2022-12-22T10:42:15.413Z,100024.63
2022-12-22T10:47:26.270Z,100002.28
2022-12-22T10:52:34.036Z,100012.63
2022-12-22T10:57:40.660Z,100000.56
2022-12-22T11:02:55.555Z,99997.09
2022-12-22T11:08:16.931Z,99988.50
2022-12-22T11:13:51.975Z,99967.88
2022-12-22T11:19:17.990Z,99961.00
2022-12-22T11:24:40.560Z,99947.22
2022-12-22T11:30:12.118Z,99946.34
2022-12-22T11:35:36.095Z,99939.53
2022-12-22T11:40:47.360Z,99922.31
2022-12-22T11:46:20.229Z,99925.75
2022-12-22T11:51:51.064Z,99931.69
2022-12-22T11:57:10.605Z,99935.19
2022-12-22T12:03:01.953Z,99936.00
2022-12-22T12:08:22.549Z,99924.81
2022-12-22T12:13:40.066Z,99906.78
2022-12-22T12:19:26.501Z,99907.69
2022-12-22T12:24:58.957Z,99899.09
2022-12-22T12:30:37.668Z,99887.03
2022-12-22T12:35:53.855Z,99886.16
2022-12-22T12:41:12.491Z,99887.91
2022-12-22T12:47:00.233Z,99881.94
2022-12-22T12:52:07.565Z,99890.59
2022-12-22T12:57:29.986Z,99876.03
2022-12-22T13:02:40.845Z,99874.34
2022-12-22T13:08:25.254Z,99867.50
2022-12-22T13:13:52.572Z,99882.09
2022-12-22T13:19:00.862Z,99870.97
2022-12-22T13:24:28.721Z,99860.66
2022-12-22T13:29:49.988Z,99876.16
2022-12-22T13:40:44.397Z,99852.16
2022-12-22T13:45:56.925Z,99848.72
2022-12-22T13:51:05.550Z,99850.44
2022-12-22T13:56:18.210Z,99847.84
2022-12-22T14:01:27.301Z,99839.28
2022-12-22T14:06:37.269Z,99831.56
2022-12-22T14:11:51.261Z,99825.56
2022-12-22T14:17:02.040Z,99820.44
2022-12-22T14:22:13.295Z,99828.16
2022-12-22T14:27:32.107Z,99815.25
2022-12-22T14:32:45.742Z,99816.13
2022-12-22T14:38:01.032Z,99805.78
2022-12-22T14:43:24.137Z,99806.59
2022-12-22T14:48:35.959Z,99800.63
2022-12-22T14:53:47.552Z,99804.03
2022-12-22T14:59:08.973Z,99792.03
2022-12-22T15:04:22.728Z,99805.75
2022-12-22T15:14:58.304Z,99791.19
2022-12-22T15:20:09.019Z,99785.19
2022-12-22T15:25:18.337Z,99789.53
2022-12-22T15:30:32.090Z,99780.06
2022-12-22T15:35:40.374Z,99770.63
2022-12-22T15:40:47.384Z,99751.75
2022-12-22T15:45:57.990Z,99758.63
2022-12-22T15:51:09.498Z,99757.78
2022-12-22T15:56:22.559Z,99749.19
2022-12-22T16:01:29.383Z,99736.31
2022-12-22T16:06:37.853Z,99740.59
2022-12-22T16:11:45.549Z,99730.28
2022-12-22T16:16:52.256Z,99737.13
2022-12-22T16:22:00.118Z,99735.44
2022-12-22T16:27:07.085Z,99720.81
2022-12-22T16:32:19.969Z,99734.56
2022-12-22T16:37:28.187Z,99717.41
2022-12-22T16:48:02.726Z,99710.56
2022-12-22T16:53:14.891Z,99712.28
2022-12-22T16:58:21.552Z,99703.66
2022-12-22T17:03:30.524Z,99703.66
2022-12-22T17:08:40.220Z,99693.31
2022-12-22T17:13:46.640Z,99690.69
2022-12-22T17:18:53.371Z,99686.34
2022-12-22T17:24:04.507Z,99684.63
2022-12-22T17:29:17.277Z,99691.44
2022-12-22T17:34:23.666Z,99682.03
2022-12-22T17:39:33.006Z,99675.09
2022-12-22T17:44:39.839Z,99667.31
2022-12-22T17:49:46.936Z,99666.44
2022-12-22T17:54:55.948Z,99659.63
2022-12-22T18:00:06.448Z,99651.84
2022-12-22T18:05:20.020Z,99640.63
2022-12-22T18:10:34.041Z,99644.97
2022-12-22T18:15:40.417Z,99636.34
2022-12-22T18:21:07.477Z,99635.44
2022-12-22T18:26:25.640Z,99632.84
2022-12-22T18:31:32.786Z,99631.94
2022-12-22T18:36:42.798Z,99635.44
2022-12-22T18:41:54.577Z,99632.00
2022-12-22T18:47:03.212Z,99626.84
2022-12-22T18:52:19.520Z,99623.44
2022-12-22T18:57:28.448Z,99625.16
2022-12-22T19:02:35.941Z,99617.44
2022-12-22T19:07:43.642Z,99620.00
2022-12-22T19:12:56.672Z,99614.03
2022-12-22T19:18:04.072Z,99606.25
2022-12-22T19:23:16.550Z,99613.13
2022-12-22T19:28:34.069Z,99601.97
2022-12-22T19:33:44.546Z,99609.72
2022-12-22T19:39:00.518Z,99602.81
2022-12-22T19:44:23.350Z,99598.56
2022-12-22T19:49:31.522Z,99595.94
2022-12-22T19:54:39.729Z,99586.44
2022-12-22T19:59:51.158Z,99591.59
2022-12-22T20:04:59.177Z,99589.84
2022-12-22T20:10:11.613Z,99581.16
2022-12-22T20:15:25.446Z,99587.19
2022-12-22T20:20:36.865Z,99577.59
2022-12-22T20:25:51.967Z,99581.00
2022-12-22T20:31:04.058Z,99579.25
2022-12-22T20:36:22.502Z,99568.94
2022-12-22T20:41:33.503Z,99559.41
2022-12-22T20:46:45.408Z,99570.59
2022-12-22T20:51:59.595Z,99563.72
2022-12-22T20:57:08.505Z,99569.78
2022-12-22T21:02:25.824Z,99562.09
2022-12-22T21:07:35.192Z,99566.44
2022-12-22T21:12:44.004Z,99575.03
2022-12-22T21:17:58.499Z,99576.75
2022-12-22T21:23:09.805Z,99581.03
2022-12-22T21:28:28.470Z,99570.72
2022-12-22T21:33:39.596Z,99571.63
2022-12-22T21:38:52.299Z,99569.03
2022-12-22T21:44:02.205Z,99568.22
2022-12-22T21:49:20.656Z,99573.34
2022-12-22T21:54:31.644Z,99572.50
2022-12-22T21:59:39.407Z,99563.91
2022-12-22T22:04:53.977Z,99563.88
2022-12-22T22:10:07.647Z,99561.28
2022-12-22T22:15:16.045Z,99566.41
2022-12-22T22:20:27.249Z,99569.00
2022-12-22T22:25:40.245Z,99569.88
2022-12-22T22:30:49.680Z,99567.31
2022-12-22T22:36:02.214Z,99563.81
2022-12-22T22:41:13.385Z,99563.78
2022-12-22T22:46:20.133Z,99567.19
2022-12-22T22:51:29.435Z,99562.06
2022-12-22T22:56:39.137Z,99561.97
2022-12-22T23:01:45.753Z,99559.38
2022-12-22T23:06:54.199Z,99566.28
2022-12-22T23:12:01.105Z,99561.91
2022-12-22T23:17:08.562Z,99568.75
2022-12-22T23:22:18.183Z,99573.03
2022-12-22T23:27:25.935Z,99568.69
2022-12-22T23:32:33.055Z,99565.16
2022-12-22T23:37:41.628Z,99560.78
2022-12-22T23:42:51.787Z,99554.69
2022-12-22T23:48:03.134Z,99558.97
2022-12-22T23:53:11.005Z,99568.34
2022-12-22T23:58:19.603Z,99559.78
